Time;durP1;ratioP1;P1;durP2;ratioP2;P2;SDS_P1;SDS_P2;PMS_P1;PMS_P2;Temp;Humidity;BMP_temperature;BMP_pressure;BME280_temperature;BME280_humidity;BME280_pressure;Samples;Min_cycle;Max_cycle;Signal;HPM_P1;HPM_P2
2022/10/25 00:01:50;;;;;;;;;;;;;;;;;;5033931;28;19959;-63
2022/10/25 00:04:16;;;;;;;;;;;;;;;;;;5034223;28;19909;-64
2022/10/25 00:06:42;;;;;;;;;;;;;;;;;;5033530;28;19909;-63
2022/10/25 00:09:07;;;;;;;;;;;;;;;;;;5033616;28;19979;-64
2022/10/25 00:11:33;;;;;;;;;;;;;;;;;;5034476;28;20271;-63
2022/10/25 00:13:59;;;;;;;;;;;;;;;;;;5033380;28;20383;-64
2022/10/25 00:16:25;;;;;;;;;;;;;;;;;;5033936;28;19916;-65
2022/10/25 00:18:51;;;;;;;;;;;;;;;;;;5033568;28;19971;-65
2022/10/25 00:21:17;;;;;;;;;;;;;;;;;;5032872;28;19910;-64
2022/10/25 00:23:43;;;;;;;;;;;;;;;;;;5033517;28;19910;-64
2022/10/25 00:26:09;;;;;;;;;;;;;;;;;;5033679;28;19909;-63
2022/10/25 00:28:34;;;;;;;;;;;;;;;;;;5032998;28;19909;-65
2022/10/25 00:31:00;;;;;;;;;;;;;;;;;;5033271;28;20000;-66
2022/10/25 00:33:26;;;;;;;;;;;;;;;;;;5032854;28;19917;-65
2022/10/25 00:35:52;;;;;;;;;;;;;;;;;;5032585;28;19935;-64
2022/10/25 00:38:18;;;;;;;;;;;;;;;;;;5033102;28;19924;-66
2022/10/25 00:40:44;;;;;;;;;;;;;;;;;;5033060;28;20336;-65
2022/10/25 00:43:10;;;;;;;;;;;;;;;;;;5033126;28;19909;-65
2022/10/25 00:45:36;;;;;;;;;;;;;;;;;;5033123;28;19952;-64
2022/10/25 00:48:02;;;;;;;;;;;;;;;;;;5032847;28;19909;-65
2022/10/25 00:50:28;;;;;;;;;;;;;;;;;;5032931;28;19967;-65
2022/10/25 00:52:54;;;;;;;;;;;;;;;;;;5032611;28;20426;-66
2022/10/25 00:55:19;;;;;;;;;;;;;;;;;;5032681;28;20008;-64
2022/10/25 00:57:45;;;;;;;;;;;;;;;;;;5033479;28;19913;-65
2022/10/25 01:00:11;;;;;;;;;;;;;;;;;;5033062;28;20367;-64
2022/10/25 01:02:37;;;;;;;;;;;;;;;;;;5032653;28;19910;-65
2022/10/25 01:05:03;;;;;;;;;;;;;;;;;;5026269;28;19913;-65
2022/10/25 01:07:29;;;;;;;;;;;;;;;;;;5033003;28;20449;-65
2022/10/25 01:09:55;;;;;;;;;;;;;;;;;;5032612;28;19913;-64
2022/10/25 01:12:21;;;;;;;;;;;;;;;;;;5032443;28;20378;-65
2022/10/25 01:14:47;;;;;;;;;;;;;;;;;;5032358;28;19924;-63
2022/10/25 01:17:13;;;;;;;;;;;;;;;;;;5032201;28;19909;-65
2022/10/25 01:19:39;;;;;;;;;;;;;;;;;;5032545;28;19958;-64
2022/10/25 01:22:05;;;;;;;;;;;;;;;;;;5032246;28;20293;-64
2022/10/25 01:24:31;;;;;;;;;;;;;;;;;;5031093;28;19910;-64
2022/10/25 01:26:57;;;;;;;;;;;;;;;;;;5032052;28;19916;-65
2022/10/25 01:29:25;;;;;;;;;;;;;;;;;;5032172;28;19909;-63
2022/10/25 01:31:51;;;;;;;;;;;;;;;;;;5032675;28;19909;-64
2022/10/25 01:34:17;;;;;;;;;;;;;;;;;;5028174;28;20382;-63
2022/10/25 01:36:43;;;;;;;;;;;;;;;;;;5029190;28;20016;-63
2022/10/25 01:39:09;;;;;;;;;;;;;;;;;;5031993;28;19909;-65
2022/10/25 01:41:35;;;;;;;;;;;;;;;;;;5032645;28;20354;-63
2022/10/25 01:44:01;;;;;;;;;;;;;;;;;;5031923;28;19916;-64
2022/10/25 01:46:26;;;;;;;;;;;;;;;;;;5031919;28;20411;-63
2022/10/25 01:48:52;;;;;;;;;;;;;;;;;;5030552;28;20007;-63
2022/10/25 01:51:18;;;;;;;;;;;;;;;;;;5031863;28;19921;-65
2022/10/25 01:53:44;;;;;;;;;;;;;;;;;;5031978;28;19960;-65
2022/10/25 01:56:10;;;;;;;;;;;;;;;;;;5031701;28;19913;-66
2022/10/25 01:58:36;;;;;;;;;;;;;;;;;;5031826;28;20377;-64
2022/10/25 02:01:02;;;;;;;;;;;;;;;;;;5031796;28;19955;-63
2022/10/25 02:03:28;;;;;;;;;;;;;;;;;;5031202;28;20448;-65
2022/10/25 02:05:54;;;;;;;;;;;;;;;;;;5031740;28;19921;-65
2022/10/25 02:08:20;;;;;;;;;;;;;;;;;;5031754;28;19916;-65
2022/10/25 02:10:46;;;;;;;;;;;;;;;;;;5024623;28;19955;-65
2022/10/25 02:13:11;;;;;;;;;;;;;;;;;;5031575;28;19954;-65
2022/10/25 02:15:37;;;;;;;;;;;;;;;;;;5031510;28;20054;-64
2022/10/25 02:18:03;;;;;;;;;;;;;;;;;;5030957;28;19909;-63
2022/10/25 02:20:29;;;;;;;;;;;;;;;;;;5031536;28;19956;-64
2022/10/25 02:22:55;;;;;;;;;;;;;;;;;;5031200;28;20000;-63
2022/10/25 02:25:21;;;;;;;;;;;;;;;;;;5031010;28;19909;-62
2022/10/25 02:27:47;;;;;;;;;;;;;;;;;;5031747;28;19910;-63
2022/10/25 02:30:13;;;;;;;;;;;;;;;;;;5031182;28;19920;-64
2022/10/25 02:32:39;;;;;;;;;;;;;;;;;;5029337;28;19940;-65
2022/10/25 02:35:05;;;;;;;;;;;;;;;;;;5031301;28;20326;-64
2022/10/25 02:37:31;;;;;;;;;;;;;;;;;;5031397;28;19914;-63
2022/10/25 02:39:57;;;;;;;;;;;;;;;;;;5030883;28;20422;-64
2022/10/25 02:42:23;;;;;;;;;;;;;;;;;;5031264;28;20012;-64
2022/10/25 02:44:49;;;;;;;;;;;;;;;;;;5030866;28;19920;-64
2022/10/25 02:47:15;;;;;;;;;;;;;;;;;;5030929;28;19963;-63
2022/10/25 02:49:41;;;;;;;;;;;;;;;;;;5031063;28;19963;-64
2022/10/25 02:52:07;;;;;;;;;;;;;;;;;;5030478;28;19909;-64
2022/10/25 02:54:33;;;;;;;;;;;;;;;;;;5031137;28;20013;-64
2022/10/25 02:56:58;;;;;;;;;;;;;;;;;;5030606;28;19959;-65
2022/10/25 02:59:24;;;;;;;;;;;;;;;;;;5030991;28;19913;-62
2022/10/25 03:01:50;;;;;;;;;;;;;;;;;;5034171;28;19995;-65
2022/10/25 03:04:16;;;;;;;;;;;;;;;;;;5035038;28;20430;-64
2022/10/25 03:06:42;;;;;;;;;;;;;;;;;;5034777;28;19909;-65
2022/10/25 03:09:08;;;;;;;;;;;;;;;;;;5034714;28;19955;-66
2022/10/25 03:11:34;;;;;;;;;;;;;;;;;;5035177;28;20281;-65
2022/10/25 03:14:00;;;;;;;;;;;;;;;;;;5027736;28;20079;-64
2022/10/25 03:16:26;;;;;;;;;;;;;;;;;;5034712;28;19909;-64
2022/10/25 03:18:52;;;;;;;;;;;;;;;;;;5034693;28;19912;-65
2022/10/25 03:21:17;;;;;;;;;;;;;;;;;;5035069;28;20286;-63
2022/10/25 03:23:43;;;;;;;;;;;;;;;;;;5034765;28;19964;-66
2022/10/25 03:26:09;;;;;;;;;;;;;;;;;;5034965;28;20448;-64
2022/10/25 03:28:35;;;;;;;;;;;;;;;;;;5034093;28;19909;-66
2022/10/25 03:31:01;;;;;;;;;;;;;;;;;;5034799;28;19917;-65
2022/10/25 03:33:27;;;;;;;;;;;;;;;;;;5034247;28;20441;-66
2022/10/25 03:35:53;;;;;;;;;;;;;;;;;;5027769;28;19996;-66
2022/10/25 03:38:19;;;;;;;;;;;;;;;;;;5034123;28;19909;-65
2022/10/25 03:40:45;;;;;;;;;;;;;;;;;;5034365;28;19917;-65
2022/10/25 03:43:10;;;;;;;;;;;;;;;;;;5034011;28;20333;-65
2022/10/25 03:45:36;;;;;;;;;;;;;;;;;;5034616;28;20448;-65
2022/10/25 03:48:02;;;;;;;;;;;;;;;;;;5033842;28;19924;-64
2022/10/25 03:50:28;;;;;;;;;;;;;;;;;;5034191;28;20285;-64
2022/10/25 03:52:54;;;;;;;;;;;;;;;;;;5032520;28;19983;-66
2022/10/25 03:55:20;;;;;;;;;;;;;;;;;;5033851;28;19960;-66
2022/10/25 03:57:46;;;;;;;;;;;;;;;;;;5033875;28;19963;-64
2022/10/25 04:00:12;;;;;;;;;;;;;;;;;;5033896;28;19912;-64
2022/10/25 04:02:37;;;;;;;;;;;;;;;;;;5033950;28;20012;-64
2022/10/25 04:05:03;;;;;;;;;;;;;;;;;;5034095;28;20521;-65
2022/10/25 04:07:29;;;;;;;;;;;;;;;;;;5033574;28;19917;-65
2022/10/25 04:09:55;;;;;;;;;;;;;;;;;;5033932;28;20421;-65
2022/10/25 04:12:21;;;;;;;;;;;;;;;;;;5032506;28;19941;-65
2022/10/25 04:14:47;;;;;;;;;;;;;;;;;;5027423;28;20583;-65
2022/10/25 04:17:13;;;;;;;;;;;;;;;;;;5034072;28;19909;-65
2022/10/25 04:19:39;;;;;;;;;;;;;;;;;;5033426;28;19913;-65
2022/10/25 04:22:05;;;;;;;;;;;;;;;;;;5033249;28;19956;-65
2022/10/25 04:24:30;;;;;;;;;;;;;;;;;;5033519;28;19954;-64
2022/10/25 04:26:56;;;;;;;;;;;;;;;;;;5033081;28;20362;-64
2022/10/25 04:29:22;;;;;;;;;;;;;;;;;;5033389;28;19909;-65
2022/10/25 04:31:48;;;;;;;;;;;;;;;;;;5033389;28;19913;-65
2022/10/25 04:34:14;;;;;;;;;;;;;;;;;;5033406;28;19923;-64
2022/10/25 04:36:40;;;;;;;;;;;;;;;;;;5033249;28;19909;-65
2022/10/25 04:39:06;;;;;;;;;;;;;;;;;;5032960;28;19910;-66
2022/10/25 04:41:32;;;;;;;;;;;;;;;;;;5032940;28;19963;-65
2022/10/25 04:43:57;;;;;;;;;;;;;;;;;;5033257;28;19916;-65
2022/10/25 04:46:23;;;;;;;;;;;;;;;;;;5033676;28;20274;-64
2022/10/25 04:48:49;;;;;;;;;;;;;;;;;;5032584;28;19925;-64
2022/10/25 04:51:15;;;;;;;;;;;;;;;;;;5032501;28;19921;-64
2022/10/25 04:53:41;;;;;;;;;;;;;;;;;;5033120;28;19917;-65
2022/10/25 04:56:07;;;;;;;;;;;;;;;;;;5032264;28;19909;-64
2022/10/25 04:58:33;;;;;;;;;;;;;;;;;;5032986;28;19909;-63
2022/10/25 05:01:00;;;;;;;;;;;;;;;;;;5032922;28;19913;-64
2022/10/25 05:03:26;;;;;;;;;;;;;;;;;;5032081;28;20382;-64
2022/10/25 05:05:51;;;;;;;;;;;;;;;;;;5032198;28;19974;-65
2022/10/25 05:08:17;;;;;;;;;;;;;;;;;;5032214;28;19909;-65
2022/10/25 05:10:43;;;;;;;;;;;;;;;;;;5031893;28;19945;-65
2022/10/25 05:13:09;;;;;;;;;;;;;;;;;;5032212;28;19940;-65
2022/10/25 05:15:35;;;;;;;;;;;;;;;;;;5032163;28;19924;-65
2022/10/25 05:18:01;;;;;;;;;;;;;;;;;;5025656;28;20448;-64
2022/10/25 05:20:27;;;;;;;;;;;;;;;;;;5032419;28;19909;-64
2022/10/25 05:22:52;;;;;;;;;;;;;;;;;;5031254;28;19916;-63
2022/10/25 05:25:18;;;;;;;;;;;;;;;;;;5031404;28;19909;-62
2022/10/25 05:27:44;;;;;;;;;;;;;;;;;;5032302;28;19992;-62
2022/10/25 05:30:10;;;;;;;;;;;;;;;;;;5025396;28;20465;-64
2022/10/25 05:32:36;;;;;;;;;;;;;;;;;;5031601;28;19920;-64
2022/10/25 05:35:02;;;;;;;;;;;;;;;;;;5032198;28;19960;-63
2022/10/25 05:37:28;;;;;;;;;;;;;;;;;;5031345;28;20003;-63
2022/10/25 05:39:54;;;;;;;;;;;;;;;;;;5031544;28;20465;-63
2022/10/25 05:42:20;;;;;;;;;;;;;;;;;;5031467;28;19916;-64
2022/10/25 05:44:45;;;;;;;;;;;;;;;;;;5031566;28;19910;-64
2022/10/25 05:47:11;;;;;;;;;;;;;;;;;;5031536;28;19917;-65
2022/10/25 05:49:39;;;;;;;;;;;;;;;;;;5031531;28;20012;-66
2022/10/25 05:52:05;;;;;;;;;;;;;;;;;;5031472;28;19917;-66
2022/10/25 05:54:31;;;;;;;;;;;;;;;;;;5031493;28;19928;-66
2022/10/25 05:56:57;;;;;;;;;;;;;;;;;;5031486;28;20340;-67
2022/10/25 05:59:23;;;;;;;;;;;;;;;;;;5031860;28;19909;-66
2022/10/25 06:01:49;;;;;;;;;;;;;;;;;;5030705;28;19919;-65
2022/10/25 06:04:15;;;;;;;;;;;;;;;;;;5031643;28;19956;-64
2022/10/25 06:06:41;;;;;;;;;;;;;;;;;;5031000;28;19917;-67
2022/10/25 06:09:07;;;;;;;;;;;;;;;;;;5031476;28;19909;-68
2022/10/25 06:11:32;;;;;;;;;;;;;;;;;;5031528;28;19920;-63
2022/10/25 06:13:58;;;;;;;;;;;;;;;;;;5031143;28;19917;-63
2022/10/25 06:16:24;;;;;;;;;;;;;;;;;;5030874;28;20011;-62
2022/10/25 06:18:50;;;;;;;;;;;;;;;;;;5030356;28;19909;-65
2022/10/25 06:21:16;;;;;;;;;;;;;;;;;;5031302;28;19916;-63
2022/10/25 06:23:42;;;;;;;;;;;;;;;;;;5030923;28;20007;-63
2022/10/25 06:26:08;;;;;;;;;;;;;;;;;;5031013;28;19916;-63
2022/10/25 06:28:34;;;;;;;;;;;;;;;;;;5029645;28;19920;-63
2022/10/25 06:31:00;;;;;;;;;;;;;;;;;;5031459;28;19966;-63
2022/10/25 06:33:25;;;;;;;;;;;;;;;;;;5031229;28;19921;-63
2022/10/25 06:35:51;;;;;;;;;;;;;;;;;;5030515;28;19936;-63
2022/10/25 06:38:17;;;;;;;;;;;;;;;;;;5030204;28;20449;-63
2022/10/25 06:40:43;;;;;;;;;;;;;;;;;;5023723;28;19917;-61
2022/10/25 06:43:09;;;;;;;;;;;;;;;;;;5029242;28;19913;-63
2022/10/25 06:45:35;;;;;;;;;;;;;;;;;;5029780;28;19921;-62
2022/10/25 06:48:01;;;;;;;;;;;;;;;;;;5029920;28;20007;-63
2022/10/25 06:50:27;;;;;;;;;;;;;;;;;;5029302;28;19932;-62
2022/10/25 06:52:52;;;;;;;;;;;;;;;;;;5029495;28;19913;-62
2022/10/25 06:55:18;;;;;;;;;;;;;;;;;;5029495;28;19913;-61
2022/10/25 06:57:44;;;;;;;;;;;;;;;;;;5030074;28;19971;-62
2022/10/25 07:00:10;;;;;;;;;;;;;;;;;;5029488;28;19913;-62
2022/10/25 07:02:36;;;;;;;;;;;;;;;;;;5029627;28;20341;-63
2022/10/25 07:05:02;;;;;;;;;;;;;;;;;;5029769;28;19910;-62
2022/10/25 07:07:28;;;;;;;;;;;;;;;;;;5028381;28;20358;-62
2022/10/25 07:09:54;;;;;;;;;;;;;;;;;;5028739;28;19966;-60
2022/10/25 07:12:19;;;;;;;;;;;;;;;;;;5028211;28;19916;-62
2022/10/25 07:14:45;;;;;;;;;;;;;;;;;;5029650;28;19924;-60
2022/10/25 07:17:11;;;;;;;;;;;;;;;;;;5029294;28;20677;-64
2022/10/25 07:19:37;;;;;;;;;;;;;;;;;;5028041;28;20274;-62
2022/10/25 07:22:03;;;;;;;;;;;;;;;;;;5028949;28;19962;-60
2022/10/25 07:24:30;;;;;;;;;;;;;;;;;;5022892;28;19913;-63
2022/10/25 07:26:55;;;;;;;;;;;;;;;;;;5029061;28;19921;-63
2022/10/25 07:29:21;;;;;;;;;;;;;;;;;;5029306;28;19921;-63
2022/10/25 07:31:47;;;;;;;;;;;;;;;;;;5029661;28;19956;-60
2022/10/25 07:34:13;;;;;;;;;;;;;;;;;;5030196;28;19917;-62
2022/10/25 07:36:39;;;;;;;;;;;;;;;;;;5029829;28;19913;-64
2022/10/25 07:39:05;;;;;;;;;;;;;;;;;;5030571;28;19914;-62
2022/10/25 07:41:31;;;;;;;;;;;;;;;;;;5030365;28;20321;-63
2022/10/25 07:43:57;;;;;;;;;;;;;;;;;;5030376;28;19941;-63
2022/10/25 07:46:23;;;;;;;;;;;;;;;;;;5030940;28;19909;-61
2022/10/25 07:48:48;;;;;;;;;;;;;;;;;;5034560;28;19972;-61
2022/10/25 07:51:14;;;;;;;;;;;;;;;;;;5033852;28;20343;-63
2022/10/25 07:53:40;;;;;;;;;;;;;;;;;;5034096;28;20370;-62
2022/10/25 07:56:06;;;;;;;;;;;;;;;;;;5034231;28;19910;-63
2022/10/25 07:58:32;;;;;;;;;;;;;;;;;;5033914;28;20448;-63
2022/10/25 08:00:58;;;;;;;;;;;;;;;;;;5034063;28;20336;-62
2022/10/25 08:03:24;;;;;;;;;;;;;;;;;;5032565;28;19917;-62
2022/10/25 08:05:50;;;;;;;;;;;;;;;;;;5033246;28;20401;-63
2022/10/25 08:08:15;;;;;;;;;;;;;;;;;;5033614;28;19913;-62
2022/10/25 08:10:41;;;;;;;;;;;;;;;;;;5032436;28;19909;-63
2022/10/25 08:13:07;;;;;;;;;;;;;;;;;;5033855;28;19917;-61
2022/10/25 08:15:35;;;;;;;;;;;;;;;;;;5033411;28;19924;-62
2022/10/25 08:18:01;;;;;;;;;;;;;;;;;;5033362;28;19909;-64
2022/10/25 08:20:27;;;;;;;;;;;;;;;;;;5033285;28;20291;-63
2022/10/25 08:22:52;;;;;;;;;;;;;;;;;;5033622;28;19916;-62
2022/10/25 08:25:18;;;;;;;;;;;;;;;;;;5033592;28;19909;-63
2022/10/25 08:27:44;;;;;;;;;;;;;;;;;;5033498;28;19916;-63
2022/10/25 08:30:10;;;;;;;;;;;;;;;;;;5033744;28;19913;-63
2022/10/25 08:32:36;;;;;;;;;;;;;;;;;;5033203;28;19913;-61
2022/10/25 08:35:02;;;;;;;;;;;;;;;;;;5032860;28;19956;-62
2022/10/25 08:37:28;;;;;;;;;;;;;;;;;;5033015;28;19909;-63
2022/10/25 08:39:54;;;;;;;;;;;;;;;;;;5033140;28;19988;-64
2022/10/25 08:42:20;;;;;;;;;;;;;;;;;;5032921;28;19992;-63
2022/10/25 08:44:46;;;;;;;;;;;;;;;;;;5033107;28;20287;-62
2022/10/25 08:47:11;;;;;;;;;;;;;;;;;;5033233;28;19913;-63
2022/10/25 08:49:37;;;;;;;;;;;;;;;;;;5033017;28;19921;-63
2022/10/25 08:52:03;;;;;;;;;;;;;;;;;;5033011;28;19916;-62
2022/10/25 08:54:29;;;;;;;;;;;;;;;;;;5033027;28;19918;-63
2022/10/25 08:56:55;;;;;;;;;;;;;;;;;;5032438;28;19931;-63
2022/10/25 08:59:21;;;;;;;;;;;;;;;;;;5031464;28;19913;-63
2022/10/25 09:01:47;;;;;;;;;;;;;;;;;;5032712;28;20012;-63
2022/10/25 09:04:14;;;;;;;;;;;;;;;;;;5032900;28;19913;-62
2022/10/25 09:06:40;;;;;;;;;;;;;;;;;;5032762;28;20362;-63
2022/10/25 09:09:06;;;;;;;;;;;;;;;;;;5032982;28;19966;-63
2022/10/25 09:11:32;;;;;;;;;;;;;;;;;;5032542;28;19920;-64
2022/10/25 09:13:58;;;;;;;;;;;;;;;;;;5032502;28;20333;-63
2022/10/25 09:16:24;;;;;;;;;;;;;;;;;;5032488;28;19945;-62
2022/10/25 09:18:49;;;;;;;;;;;;;;;;;;5031952;28;20002;-62
2022/10/25 09:21:15;;;;;;;;;;;;;;;;;;5032873;28;19913;-61
2022/10/25 09:23:41;;;;;;;;;;;;;;;;;;5031997;28;20378;-63
2022/10/25 09:26:08;;;;;;;;;;;;;;;;;;5032545;28;19909;-63
2022/10/25 09:28:33;;;;;;;;;;;;;;;;;;5032307;28;19909;-62
2022/10/25 09:30:59;;;;;;;;;;;;;;;;;;5031748;28;19913;-62
2022/10/25 09:33:29;;;;;;;;;;;;;;;;;;5032283;28;20294;-63
2022/10/25 09:35:55;;;;;;;;;;;;;;;;;;5031870;28;20358;-64
2022/10/25 09:38:20;;;;;;;;;;;;;;;;;;5032571;28;19913;-62
2022/10/25 09:40:46;;;;;;;;;;;;;;;;;;5031679;28;19910;-62
2022/10/25 09:43:16;;;;;;;;;;;;;;;;;;5032032;28;20350;-63
2022/10/25 09:45:41;;;;;;;;;;;;;;;;;;5031621;28;19948;-63
2022/10/25 09:48:07;;;;;;;;;;;;;;;;;;5032250;28;20325;-63
2022/10/25 09:50:33;;;;;;;;;;;;;;;;;;5031864;28;19921;-63
2022/10/25 09:53:01;;;;;;;;;;;;;;;;;;5030903;28;20430;-62
2022/10/25 09:55:27;;;;;;;;;;;;;;;;;;5031868;28;19959;-62
2022/10/25 09:57:53;;;;;;;;;;;;;;;;;;5031761;28;19909;-63
2022/10/25 10:00:19;;;;;;;;;;;;;;;;;;5031264;28;20442;-63
2022/10/25 10:02:45;;;;;;;;;;;;;;;;;;5031521;28;19963;-62
2022/10/25 10:05:10;;;;;;;;;;;;;;;;;;5031790;28;20366;-62
2022/10/25 10:07:36;;;;;;;;;;;;;;;;;;5031687;28;19913;-62
2022/10/25 10:10:02;;;;;;;;;;;;;;;;;;5031122;28;20366;-63
2022/10/25 10:12:28;;;;;;;;;;;;;;;;;;5031838;28;19909;-62
2022/10/25 10:14:55;;;;;;;;;;;;;;;;;;5030902;28;19921;-63
2022/10/25 10:17:20;;;;;;;;;;;;;;;;;;5031486;28;19918;-61
2022/10/25 10:19:46;;;;;;;;;;;;;;;;;;5031708;28;20292;-61
2022/10/25 10:22:12;;;;;;;;;;;;;;;;;;5024464;28;20692;-61
2022/10/25 10:24:38;;;;;;;;;;;;;;;;;;5030308;28;19909;-61
2022/10/25 10:27:04;;;;;;;;;;;;;;;;;;5030637;28;19909;-61
2022/10/25 10:29:30;;;;;;;;;;;;;;;;;;5029866;28;19931;-62
2022/10/25 10:31:56;;;;;;;;;;;;;;;;;;5029927;28;19924;-62
2022/10/25 10:34:22;;;;;;;;;;;;;;;;;;5027611;28;19957;-62
2022/10/25 10:36:51;;;;;;;;;;;;;;;;;;5029500;28;20004;-62
2022/10/25 10:39:16;;;;;;;;;;;;;;;;;;5030433;28;19909;-61
2022/10/25 10:41:42;;;;;;;;;;;;;;;;;;5028702;28;20356;-61
2022/10/25 10:44:08;;;;;;;;;;;;;;;;;;5027531;28;20003;-60
2022/10/25 10:46:34;;;;;;;;;;;;;;;;;;5030160;28;20370;-61
2022/10/25 10:49:00;;;;;;;;;;;;;;;;;;5030041;28;20293;-60
2022/10/25 10:51:26;;;;;;;;;;;;;;;;;;5028540;28;19913;-61
2022/10/25 10:53:52;;;;;;;;;;;;;;;;;;5029642;28;19921;-61
2022/10/25 10:56:18;;;;;;;;;;;;;;;;;;5029861;28;19910;-62
2022/10/25 10:58:43;;;;;;;;;;;;;;;;;;5029406;28;19919;-61
2022/10/25 11:01:09;;;;;;;;;;;;;;;;;;5029475;28;19909;-62
2022/10/25 11:03:35;;;;;;;;;;;;;;;;;;5029216;28;19920;-60
2022/10/25 11:06:01;;;;;;;;;;;;;;;;;;5028872;28;19913;-62
2022/10/25 11:08:27;;;;;;;;;;;;;;;;;;5029397;28;20000;-61
2022/10/25 11:10:53;;;;;;;;;;;;;;;;;;5029443;28;19909;-61
2022/10/25 11:13:19;;;;;;;;;;;;;;;;;;5028859;28;19924;-61
2022/10/25 11:15:45;;;;;;;;;;;;;;;;;;5029458;28;19955;-62
2022/10/25 11:18:11;;;;;;;;;;;;;;;;;;5029397;28;20382;-61
2022/10/25 11:20:40;;;;;;;;;;;;;;;;;;5029243;28;19925;-60
2022/10/25 11:23:05;;;;;;;;;;;;;;;;;;5032103;28;19963;-60
2022/10/25 11:25:31;;;;;;;;;;;;;;;;;;5033551;28;20062;-63
2022/10/25 11:27:57;;;;;;;;;;;;;;;;;;5032975;28;20308;-61
2022/10/25 11:30:23;;;;;;;;;;;;;;;;;;5033077;28;19916;-60
2022/10/25 11:32:49;;;;;;;;;;;;;;;;;;5033185;28;19913;-61
2022/10/25 11:35:15;;;;;;;;;;;;;;;;;;5033425;28;19917;-62
2022/10/25 11:37:41;;;;;;;;;;;;;;;;;;5033335;28;19994;-61
2022/10/25 11:40:07;;;;;;;;;;;;;;;;;;5033322;28;20299;-61
2022/10/25 11:42:32;;;;;;;;;;;;;;;;;;5032647;28;19913;-61
2022/10/25 11:44:58;;;;;;;;;;;;;;;;;;5033398;28;19913;-61
2022/10/25 11:47:24;;;;;;;;;;;;;;;;;;5032867;28;20007;-61
2022/10/25 11:49:50;;;;;;;;;;;;;;;;;;5033542;28;19969;-62
2022/10/25 11:52:16;;;;;;;;;;;;;;;;;;5032151;28;20291;-63
2022/10/25 11:54:42;;;;;;;;;;;;;;;;;;5031179;28;19917;-61
2022/10/25 11:57:08;;;;;;;;;;;;;;;;;;5032471;28;20491;-62
2022/10/25 11:59:34;;;;;;;;;;;;;;;;;;5032041;28;19970;-61
2022/10/25 12:02:00;;;;;;;;;;;;;;;;;;5033071;28;19917;-62
2022/10/25 12:04:26;;;;;;;;;;;;;;;;;;5032550;28;19913;-62
2022/10/25 12:06:52;;;;;;;;;;;;;;;;;;5032059;28;20264;-62
2022/10/25 12:09:18;;;;;;;;;;;;;;;;;;5032456;28;20019;-63
2022/10/25 12:11:44;;;;;;;;;;;;;;;;;;5031816;28;19984;-62
2022/10/25 12:14:09;;;;;;;;;;;;;;;;;;5032587;28;19921;-62
2022/10/25 12:16:35;;;;;;;;;;;;;;;;;;5031678;28;20028;-62
2022/10/25 12:19:01;;;;;;;;;;;;;;;;;;5032393;28;19909;-63
2022/10/25 12:21:29;;;;;;;;;;;;;;;;;;5031443;28;19917;-62
2022/10/25 12:23:55;;;;;;;;;;;;;;;;;;5026966;28;19917;-61
2022/10/25 12:26:21;;;;;;;;;;;;;;;;;;5029342;28;19913;-61
2022/10/25 12:28:47;;;;;;;;;;;;;;;;;;5030869;28;20440;-62
2022/10/25 12:31:13;;;;;;;;;;;;;;;;;;5029719;28;19966;-63
2022/10/25 12:33:39;;;;;;;;;;;;;;;;;;5031370;28;19995;-62
2022/10/25 12:36:05;;;;;;;;;;;;;;;;;;5031452;28;19916;-64
2022/10/25 12:38:30;;;;;;;;;;;;;;;;;;5031680;28;19996;-61
2022/10/25 12:40:56;;;;;;;;;;;;;;;;;;5032143;28;19917;-61
2022/10/25 12:43:22;;;;;;;;;;;;;;;;;;5032234;28;19913;-62
2022/10/25 12:45:48;;;;;;;;;;;;;;;;;;5032124;28;19911;-61
2022/10/25 12:48:14;;;;;;;;;;;;;;;;;;5030154;28;19913;-61
2022/10/25 12:50:40;;;;;;;;;;;;;;;;;;5025486;28;20606;-61
2022/10/25 12:53:06;;;;;;;;;;;;;;;;;;5031104;28;19909;-62
2022/10/25 12:55:32;;;;;;;;;;;;;;;;;;5030856;28;19924;-62
2022/10/25 12:57:58;;;;;;;;;;;;;;;;;;5030439;28;20362;-62
2022/10/25 13:00:23;;;;;;;;;;;;;;;;;;5029784;28;19917;-62
2022/10/25 13:02:49;;;;;;;;;;;;;;;;;;5031673;28;19956;-62
2022/10/25 13:05:15;;;;;;;;;;;;;;;;;;5031633;28;20361;-62
2022/10/25 13:07:41;;;;;;;;;;;;;;;;;;5030422;28;19909;-62
2022/10/25 13:10:07;;;;;;;;;;;;;;;;;;5031499;28;20012;-62
2022/10/25 13:12:33;;;;;;;;;;;;;;;;;;5030878;28;20340;-61
2022/10/25 13:14:59;;;;;;;;;;;;;;;;;;5031173;28;20305;-60
2022/10/25 13:17:25;;;;;;;;;;;;;;;;;;5031161;28;19967;-60
2022/10/25 13:19:51;;;;;;;;;;;;;;;;;;5030498;28;19909;-61
2022/10/25 13:22:16;;;;;;;;;;;;;;;;;;5030890;28;20401;-61
2022/10/25 13:24:42;;;;;;;;;;;;;;;;;;5030973;28;19913;-60
2022/10/25 13:27:08;;;;;;;;;;;;;;;;;;5031691;28;19925;-61
2022/10/25 13:29:34;;;;;;;;;;;;;;;;;;5030863;28;19913;-63
2022/10/25 13:32:00;;;;;;;;;;;;;;;;;;5031402;28;20011;-62
2022/10/25 13:34:26;;;;;;;;;;;;;;;;;;5029089;28;19976;-60
2022/10/25 13:36:52;;;;;;;;;;;;;;;;;;5026973;28;20366;-62
2022/10/25 13:39:18;;;;;;;;;;;;;;;;;;5031049;28;19947;-61
2022/10/25 13:41:47;;;;;;;;;;;;;;;;;;5030924;28;20332;-60
2022/10/25 13:44:13;;;;;;;;;;;;;;;;;;5029652;28;20336;-61
2022/10/25 13:46:39;;;;;;;;;;;;;;;;;;5030922;28;19913;-61
2022/10/25 13:49:05;;;;;;;;;;;;;;;;;;5030693;28;19928;-61
2022/10/25 13:51:31;;;;;;;;;;;;;;;;;;5030340;28;19921;-60
2022/10/25 13:53:57;;;;;;;;;;;;;;;;;;5027148;28;19921;-62
2022/10/25 13:56:23;;;;;;;;;;;;;;;;;;5029906;28;20432;-60
2022/10/25 13:58:48;;;;;;;;;;;;;;;;;;5027520;28;19920;-60
2022/10/25 14:01:14;;;;;;;;;;;;;;;;;;5029752;28;19913;-61
2022/10/25 14:03:40;;;;;;;;;;;;;;;;;;5030302;28;19929;-62
2022/10/25 14:06:06;;;;;;;;;;;;;;;;;;5023969;28;19971;-62
2022/10/25 14:08:32;;;;;;;;;;;;;;;;;;5029998;28;20016;-61
2022/10/25 14:10:58;;;;;;;;;;;;;;;;;;5030102;28;19917;-60
2022/10/25 14:13:24;;;;;;;;;;;;;;;;;;5030225;28;19983;-59
2022/10/25 14:15:50;;;;;;;;;;;;;;;;;;5030192;28;19914;-60
2022/10/25 14:18:16;;;;;;;;;;;;;;;;;;5030155;28;19963;-61
2022/10/25 14:20:42;;;;;;;;;;;;;;;;;;5029889;28;19917;-61
2022/10/25 14:23:07;;;;;;;;;;;;;;;;;;5029467;28;19905;-61
2022/10/25 14:25:33;;;;;;;;;;;;;;;;;;5029925;28;20000;-61
2022/10/25 14:27:59;;;;;;;;;;;;;;;;;;5030328;28;19910;-61
2022/10/25 14:30:25;;;;;;;;;;;;;;;;;;5030245;28;19917;-61
2022/10/25 14:32:51;;;;;;;;;;;;;;;;;;5029334;28;19916;-61
2022/10/25 14:35:17;;;;;;;;;;;;;;;;;;5029828;28;19948;-60
2022/10/25 14:37:43;;;;;;;;;;;;;;;;;;5029496;28;19913;-63
2022/10/25 14:40:09;;;;;;;;;;;;;;;;;;5029031;28;20359;-61
2022/10/25 14:42:35;;;;;;;;;;;;;;;;;;5028515;28;19978;-60
2022/10/25 14:45:01;;;;;;;;;;;;;;;;;;5029132;28;19920;-61
2022/10/25 14:47:27;;;;;;;;;;;;;;;;;;5028383;28;19968;-61
2022/10/25 14:49:52;;;;;;;;;;;;;;;;;;5028988;28;19921;-60
2022/10/25 14:52:18;;;;;;;;;;;;;;;;;;5025259;28;19913;-61
2022/10/25 14:54:44;;;;;;;;;;;;;;;;;;5027994;28;19917;-62
2022/10/25 14:57:10;;;;;;;;;;;;;;;;;;5035651;28;19944;-61
2022/10/25 14:59:37;;;;;;;;;;;;;;;;;;5035807;28;19909;-60
2022/10/25 15:02:03;;;;;;;;;;;;;;;;;;5034555;28;19915;-63
2022/10/25 15:04:29;;;;;;;;;;;;;;;;;;5035667;28;19909;-61
2022/10/25 15:06:55;;;;;;;;;;;;;;;;;;5036143;28;19924;-61
2022/10/25 15:09:21;;;;;;;;;;;;;;;;;;5029620;28;19913;-60
2022/10/25 15:11:47;;;;;;;;;;;;;;;;;;5036749;28;19960;-60
2022/10/25 15:14:13;;;;;;;;;;;;;;;;;;5035885;28;19920;-62
2022/10/25 15:16:42;;;;;;;;;;;;;;;;;;5035555;28;19920;-61
2022/10/25 15:19:08;;;;;;;;;;;;;;;;;;5028776;28;19909;-61
2022/10/25 15:21:34;;;;;;;;;;;;;;;;;;5035183;28;19963;-60
2022/10/25 15:24:00;;;;;;;;;;;;;;;;;;5036151;28;20278;-62
2022/10/25 15:26:26;;;;;;;;;;;;;;;;;;5035854;28;19913;-61
2022/10/25 15:28:53;;;;;;;;;;;;;;;;;;5035483;28;20378;-61
2022/10/25 15:31:19;;;;;;;;;;;;;;;;;;5036012;28;19948;-60
2022/10/25 15:33:47;;;;;;;;;;;;;;;;;;5035631;28;20090;-62
2022/10/25 15:36:12;;;;;;;;;;;;;;;;;;5035251;28;19918;-62
2022/10/25 15:38:38;;;;;;;;;;;;;;;;;;5035889;28;19921;-61
2022/10/25 15:41:04;;;;;;;;;;;;;;;;;;5035267;28;19971;-62
2022/10/25 15:43:30;;;;;;;;;;;;;;;;;;5035584;28;19917;-62
2022/10/25 15:45:56;;;;;;;;;;;;;;;;;;5035662;28;19909;-60
2022/10/25 15:48:22;;;;;;;;;;;;;;;;;;5034988;28;19921;-61
2022/10/25 15:50:48;;;;;;;;;;;;;;;;;;5035249;28;19913;-61
2022/10/25 15:53:14;;;;;;;;;;;;;;;;;;5034452;28;19928;-61
2022/10/25 15:55:40;;;;;;;;;;;;;;;;;;5035852;28;20022;-62
2022/10/25 15:58:05;;;;;;;;;;;;;;;;;;5033886;28;19917;-61
2022/10/25 16:00:31;;;;;;;;;;;;;;;;;;5035751;28;19951;-61
2022/10/25 16:02:57;;;;;;;;;;;;;;;;;;5028601;28;19909;-61
2022/10/25 16:05:23;;;;;;;;;;;;;;;;;;5035020;28;19913;-60
2022/10/25 16:07:49;;;;;;;;;;;;;;;;;;5032462;28;20313;-60
2022/10/25 16:10:15;;;;;;;;;;;;;;;;;;5031943;28;19956;-61
2022/10/25 16:12:41;;;;;;;;;;;;;;;;;;5032438;28;20015;-61
2022/10/25 16:15:07;;;;;;;;;;;;;;;;;;5032837;28;19917;-62
2022/10/25 16:17:32;;;;;;;;;;;;;;;;;;5031869;28;19959;-62
2022/10/25 16:19:58;;;;;;;;;;;;;;;;;;5028626;28;19995;-61
2022/10/25 16:22:24;;;;;;;;;;;;;;;;;;5032633;28;19913;-62
2022/10/25 16:24:50;;;;;;;;;;;;;;;;;;5032743;28;19959;-60
2022/10/25 16:27:16;;;;;;;;;;;;;;;;;;5032690;28;19909;-61
2022/10/25 16:29:42;;;;;;;;;;;;;;;;;;5031411;28;19913;-60
2022/10/25 16:32:08;;;;;;;;;;;;;;;;;;5032165;28;19910;-60
2022/10/25 16:34:34;;;;;;;;;;;;;;;;;;5032543;28;19979;-59
2022/10/25 16:37:00;;;;;;;;;;;;;;;;;;5031431;28;19920;-60